75LL weather

Hausmann Airport
Wyoming, Illinois, United States

Public forecast

Using degrees Fahrenheit for public forecast. Weather courtesy of forecast.io.

METAR (pilot weather report)

Closest report is Marshall County Airport, 17.3 nm (32.0 km) ESE. Retrieved 2019/06/25 11:35 UTC (0 seconds ago):

KC75 251135Z AUTO 20003KT 10SM CLR 18/16 A2989 RMK AO2 T01810155

TAF (pilot weather forecast)

Closest forecast is General Wayne A. Downing Peoria International Airport, 25.4 nm (47.0 km) S. Retrieved 2019/06/25 06:22 UTC (5 hours ago):

TAF KPIA 250520Z 2506/2606 24007KT P6SM SKC FM251500 22012KT P6SM SKC FM251800 22012G20KT P6SM SKC FM260000 22008KT P6SM BKN070 WS020/24045KT PROB30 2600/2603 4SM -TSRA BKN050CB FM260300 21008KT P6SM BKN100